createdAt,value
2023-05-04T00:02:17.081Z,99189.34
2023-05-04T00:04:46.355Z,99182.09
2023-05-04T00:07:16.635Z,99174.72
2023-05-04T00:09:44.531Z,99165.63
2023-05-04T00:12:12.346Z,99170.72
2023-05-04T00:14:40.172Z,99169.66
2023-05-04T00:17:08.150Z,99169.56
2023-05-04T00:19:37.264Z,99168.53
2023-05-04T00:22:06.469Z,99164.47
2023-05-04T00:24:34.395Z,99169.00
2023-05-04T00:27:02.295Z,99165.69
2023-05-04T00:29:32.917Z,99168.31
2023-05-04T00:32:01.568Z,99162.97
2023-05-04T00:34:30.649Z,99153.59
2023-05-04T00:36:59.175Z,99161.09
2023-05-04T00:39:28.434Z,99148.28
2023-05-04T00:41:56.586Z,99147.13
2023-05-04T00:44:24.529Z,99146.72
2023-05-04T00:46:53.514Z,99137.56
2023-05-04T00:49:25.177Z,99142.19
2023-05-04T00:51:55.684Z,99139.38
2023-05-04T00:54:24.462Z,99142.59
2023-05-04T00:56:54.538Z,99142.22
2023-05-04T00:59:22.429Z,99141.38
2023-05-04T01:01:53.336Z,99145.53
2023-05-04T01:04:21.640Z,99146.09
2023-05-04T01:06:53.834Z,99148.00
2023-05-04T01:09:31.090Z,99141.88
2023-05-04T01:12:07.140Z,99142.03
2023-05-04T01:14:35.594Z,99141.31
2023-05-04T01:17:06.165Z,99147.91
2023-05-04T01:19:36.547Z,99146.72
2023-05-04T01:22:07.106Z,99146.53
2023-05-04T01:24:35.039Z,99147.25
2023-05-04T01:27:06.645Z,99134.81
2023-05-04T01:29:40.606Z,99140.25
2023-05-04T01:32:12.717Z,99139.84
2023-05-04T01:34:42.201Z,99136.06
2023-05-04T01:37:11.696Z,99136.34
2023-05-04T01:39:39.731Z,99135.28
2023-05-04T01:42:08.244Z,99126.66
2023-05-04T01:44:36.082Z,99131.94
2023-05-04T01:47:06.095Z,99130.88
2023-05-04T01:49:33.933Z,99137.00
2023-05-04T01:52:01.813Z,99133.66
2023-05-04T01:54:31.014Z,99144.13
2023-05-04T01:56:58.877Z,99140.56
2023-05-04T01:59:30.305Z,99142.56
2023-05-04T02:01:58.150Z,99144.59
2023-05-04T02:04:27.275Z,99139.19
2023-05-04T02:06:55.127Z,99144.72
2023-05-04T02:09:23.017Z,99139.88
2023-05-04T02:11:52.430Z,99144.34
2023-05-04T02:14:20.897Z,99143.78
2023-05-04T02:16:48.836Z,99142.19
2023-05-04T02:19:16.758Z,99128.19
2023-05-04T02:21:44.691Z,99129.31
2023-05-04T02:24:12.759Z,99128.75
2023-05-04T02:26:40.599Z,99125.84
2023-05-04T02:29:09.720Z,99128.47
2023-05-04T02:31:37.776Z,99132.34
2023-05-04T02:34:08.141Z,99125.16
2023-05-04T02:36:42.376Z,99131.38
2023-05-04T02:39:10.234Z,99134.59
2023-05-04T02:41:38.102Z,99131.38
2023-05-04T02:44:06.319Z,99129.53
2023-05-04T02:46:35.588Z,99130.97
2023-05-04T02:49:03.388Z,99125.13
2023-05-04T02:51:31.260Z,99125.75
2023-05-04T02:53:59.098Z,99129.63
2023-05-04T02:56:26.880Z,99129.53
2023-05-04T02:58:54.686Z,99130.09
2023-05-04T03:01:22.517Z,99124.25
2023-05-04T03:03:51.807Z,99126.84
2023-05-04T03:06:19.609Z,99124.06
2023-05-04T03:08:47.464Z,99126.72
2023-05-04T03:11:15.342Z,99127.84
2023-05-04T03:13:43.378Z,99129.81
2023-05-04T03:16:12.232Z,99132.16
2023-05-04T03:18:40.078Z,99129.44
2023-05-04T03:21:09.341Z,99134.22
2023-05-04T03:23:37.839Z,99142.91
2023-05-04T03:26:05.944Z,99140.19
2023-05-04T03:28:34.025Z,99133.09
2023-05-04T03:31:01.921Z,99129.41
2023-05-04T03:33:30.780Z,99136.97
2023-05-04T03:35:58.651Z,99134.44
2023-05-04T03:38:27.898Z,99136.94
2023-05-04T03:40:56.428Z,99135.44
2023-05-04T03:43:24.604Z,99130.25
2023-05-04T03:45:53.713Z,99127.03
2023-05-04T03:48:21.499Z,99120.09
2023-05-04T03:50:49.517Z,99125.84
2023-05-04T03:53:17.377Z,99119.53
2023-05-04T03:55:46.539Z,99119.59
2023-05-04T03:58:14.393Z,99124.88
2023-05-04T04:00:42.572Z,99117.72
2023-05-04T04:03:15.727Z,99120.34
2023-05-04T04:05:43.782Z,99119.31
2023-05-04T04:08:12.576Z,99122.16
2023-05-04T04:10:40.853Z,99128.38
2023-05-04T04:13:10.207Z,99122.28
2023-05-04T04:15:38.087Z,99115.19
2023-05-04T04:18:06.005Z,99124.09
2023-05-04T04:20:33.976Z,99119.16
2023-05-04T04:23:01.823Z,99115.88
2023-05-04T04:25:29.626Z,99112.91
2023-05-04T04:27:57.694Z,99113.88
2023-05-04T04:30:27.125Z,99117.44
2023-05-04T04:32:57.549Z,99111.34
2023-05-04T04:35:25.437Z,99113.16
2023-05-04T04:37:53.265Z,99105.75
2023-05-04T04:40:22.476Z,99109.63
2023-05-04T04:42:50.599Z,99115.69
2023-05-04T04:45:18.876Z,99113.91
2023-05-04T04:47:50.117Z,99111.81
2023-05-04T04:50:18.226Z,99107.53
2023-05-04T04:52:46.377Z,99113.09
2023-05-04T04:55:15.565Z,99096.66
2023-05-04T04:57:43.549Z,99105.09
2023-05-04T05:00:14.102Z,99102.19
2023-05-04T05:02:42.435Z,99100.47
2023-05-04T05:05:12.901Z,99112.72
2023-05-04T05:07:42.988Z,99105.69
2023-05-04T05:10:12.498Z,99101.22
2023-05-04T05:12:40.471Z,99105.41
2023-05-04T05:15:09.362Z,99098.47
2023-05-04T05:17:38.101Z,99096.34
2023-05-04T05:20:11.230Z,99096.19
2023-05-04T05:22:40.460Z,99098.56
2023-05-04T05:25:09.260Z,99094.72
2023-05-04T05:27:37.669Z,99097.78
2023-05-04T05:30:07.137Z,99093.91
2023-05-04T05:32:35.214Z,99097.56
2023-05-04T05:35:03.088Z,99098.19
2023-05-04T05:37:31.483Z,99104.00
2023-05-04T05:40:00.777Z,99099.56
2023-05-04T05:42:30.195Z,99108.44
2023-05-04T05:44:57.968Z,99104.72
2023-05-04T05:47:25.787Z,99106.34
2023-05-04T05:49:54.368Z,99099.16
2023-05-04T05:52:22.117Z,99108.84
2023-05-04T05:54:49.977Z,99103.22
2023-05-04T05:57:20.673Z,99110.13
2023-05-04T05:59:48.763Z,99107.09
2023-05-04T06:02:16.483Z,99110.78
2023-05-04T06:04:45.420Z,99106.44
2023-05-04T06:07:14.535Z,99096.66
2023-05-04T06:09:42.369Z,99097.88
2023-05-04T06:12:15.041Z,99090.56
2023-05-04T06:14:44.250Z,99099.00
2023-05-04T06:17:12.078Z,99094.72
2023-05-04T06:19:39.933Z,99093.94
2023-05-04T06:22:08.417Z,99093.09
2023-05-04T06:24:36.152Z,99091.06
2023-05-04T06:27:04.344Z,99085.88
2023-05-04T06:29:32.206Z,99090.47
2023-05-04T06:32:03.548Z,99091.22
2023-05-04T06:34:31.358Z,99081.34
2023-05-04T06:37:01.402Z,99088.13
2023-05-04T06:39:29.164Z,99087.44
2023-05-04T06:41:57.092Z,99086.66
2023-05-04T06:44:29.584Z,99084.84
2023-05-04T06:46:57.325Z,99088.69
2023-05-04T06:49:26.485Z,99087.63
2023-05-04T06:51:54.579Z,99091.09
2023-05-04T06:54:22.382Z,99091.25
2023-05-04T06:56:50.734Z,99087.84
2023-05-04T06:59:20.363Z,99078.56
2023-05-04T07:01:48.291Z,99083.78
2023-05-04T07:04:17.209Z,99075.13
2023-05-04T07:06:46.616Z,99079.28
2023-05-04T07:09:14.395Z,99078.03
2023-05-04T07:11:42.217Z,99075.91
2023-05-04T07:14:10.568Z,99072.97
2023-05-04T07:16:38.723Z,99079.78
2023-05-04T07:19:06.961Z,99083.34
2023-05-04T07:21:34.754Z,99072.03
2023-05-04T07:24:04.429Z,99068.44
2023-05-04T07:26:32.178Z,99067.81
2023-05-04T07:29:00.129Z,99063.59
2023-05-04T07:31:30.199Z,99065.41
2023-05-04T07:33:58.500Z,99058.25
2023-05-04T07:36:27.776Z,99063.72
2023-05-04T07:38:55.637Z,99063.16
2023-05-04T07:41:24.812Z,99062.53
2023-05-04T07:43:52.713Z,99074.09
2023-05-04T07:46:20.620Z,99064.06
2023-05-04T07:48:49.288Z,99066.81
2023-05-04T07:51:17.262Z,99064.41
2023-05-04T07:53:45.169Z,99061.13
2023-05-04T07:56:13.894Z,99061.06
2023-05-04T07:58:43.154Z,99059.03
2023-05-04T08:01:11.034Z,99063.69
2023-05-04T08:03:38.825Z,99057.75
2023-05-04T08:06:08.749Z,99062.94
2023-05-04T08:08:36.655Z,99057.06
2023-05-04T08:11:19.390Z,99051.75
2023-05-04T08:13:50.703Z,99039.56
2023-05-04T08:16:18.581Z,99040.00
2023-05-04T08:18:46.480Z,99037.81
2023-05-04T08:21:14.650Z,99029.19
2023-05-04T08:23:42.571Z,99032.78
2023-05-04T08:26:10.757Z,99027.78
2023-05-04T08:28:41.684Z,99028.81
2023-05-04T08:31:11.017Z,99013.47
2023-05-04T08:33:41.417Z,99020.91
2023-05-04T08:36:09.949Z,99022.66
2023-05-04T08:38:37.918Z,99021.56
2023-05-04T08:41:06.275Z,99018.50
2023-05-04T08:43:36.297Z,99013.63
2023-05-04T08:46:05.197Z,99020.16
2023-05-04T08:48:35.109Z,99009.81
2023-05-04T08:51:04.444Z,99015.44
2023-05-04T08:53:33.707Z,99004.88
2023-05-04T08:56:04.656Z,98995.69
2023-05-04T08:58:37.674Z,98992.47
2023-05-04T09:01:07.776Z,98988.94
2023-05-04T09:03:40.534Z,98984.22
2023-05-04T09:06:09.435Z,98986.66
2023-05-04T09:08:37.360Z,98996.78
2023-05-04T09:11:05.347Z,98986.19
2023-05-04T09:13:33.992Z,98980.78
2023-05-04T09:16:03.825Z,98986.19
2023-05-04T09:18:41.118Z,98977.00
2023-05-04T09:21:09.444Z,98973.44
2023-05-04T09:23:47.702Z,98969.66
2023-05-04T09:26:15.690Z,98969.78
2023-05-04T09:28:43.762Z,98972.81
2023-05-04T09:31:12.196Z,98967.81
2023-05-04T09:33:41.625Z,98966.53
2023-05-04T09:36:16.481Z,98972.56
2023-05-04T09:38:44.601Z,98967.88
2023-05-04T09:41:12.637Z,98959.81
2023-05-04T09:43:41.778Z,98948.38
2023-05-04T09:46:18.070Z,98943.00
2023-05-04T09:48:54.164Z,98950.44
2023-05-04T09:51:26.557Z,98943.38
2023-05-04T09:53:54.861Z,98942.03
2023-05-04T09:56:33.650Z,98941.28
2023-05-04T09:59:01.504Z,98941.06
2023-05-04T10:01:30.451Z,98936.31
2023-05-04T10:04:02.968Z,98930.88
2023-05-04T10:06:31.352Z,98934.63
2023-05-04T10:09:00.531Z,98943.75
2023-05-04T10:11:31.677Z,98932.69
2023-05-04T10:13:59.542Z,98937.59
2023-05-04T10:16:38.027Z,98936.38
2023-05-04T10:19:33.492Z,98928.13
2023-05-04T10:22:14.738Z,98923.53
2023-05-04T10:25:22.483Z,98923.94
2023-05-04T10:28:02.288Z,98918.03
2023-05-04T10:30:30.817Z,98918.28
2023-05-04T10:33:00.388Z,98919.91
2023-05-04T10:35:29.732Z,98918.34
2023-05-04T10:37:58.104Z,98906.47
2023-05-04T10:40:41.346Z,98908.34
2023-05-04T10:43:11.320Z,98902.63
2023-05-04T10:45:39.746Z,98902.66
2023-05-04T10:48:08.398Z,98897.47
2023-05-04T10:50:44.746Z,98886.94
2023-05-04T10:53:13.048Z,98890.00
2023-05-04T10:55:42.587Z,98888.72
2023-05-04T10:58:14.717Z,98882.31
2023-05-04T11:00:47.399Z,98890.72
2023-05-04T11:03:15.813Z,98880.84
2023-05-04T11:05:46.423Z,98878.47
2023-05-04T11:08:21.669Z,98879.97
2023-05-04T11:10:50.967Z,98873.53
2023-05-04T11:13:19.325Z,98861.19
2023-05-04T11:15:48.364Z,98859.69
2023-05-04T11:18:27.465Z,98862.66
2023-05-04T11:20:59.852Z,98854.09
2023-05-04T11:23:28.287Z,98854.03
2023-05-04T11:25:56.404Z,98851.53
2023-05-04T11:28:33.103Z,98857.81
2023-05-04T11:31:01.033Z,98857.03
2023-05-04T11:33:30.320Z,98835.28
2023-05-04T11:36:05.676Z,98836.47
2023-05-04T11:38:33.602Z,98834.94
2023-05-04T11:41:02.595Z,98837.00
2023-05-04T11:43:31.664Z,98827.81
2023-05-04T11:46:01.389Z,98835.13
2023-05-04T11:48:30.063Z,98827.22
2023-05-04T11:50:58.284Z,98826.41
2023-05-04T11:53:28.934Z,98824.91
2023-05-04T11:56:03.294Z,98815.75
2023-05-04T11:58:31.120Z,98821.59
2023-05-04T12:00:59.891Z,98820.78
2023-05-04T12:03:39.865Z,98814.78
2023-05-04T12:06:16.412Z,98808.53
2023-05-04T12:08:45.651Z,98804.06
2023-05-04T12:11:14.609Z,98803.44
2023-05-04T12:13:43.490Z,98803.59
2023-05-04T12:16:12.753Z,98804.78
2023-05-04T12:18:41.489Z,98800.88
2023-05-04T12:21:10.924Z,98801.19
2023-05-04T12:23:39.306Z,98800.47
2023-05-04T12:26:08.828Z,98795.63
2023-05-04T12:28:37.237Z,98801.88
2023-05-04T12:31:07.852Z,98790.66
2023-05-04T12:33:36.393Z,98801.84
2023-05-04T12:36:05.910Z,98799.66
2023-05-04T12:38:34.458Z,98801.38
2023-05-04T12:41:04.297Z,98788.94
2023-05-04T12:43:33.763Z,98796.63
2023-05-04T12:46:01.566Z,98797.16
2023-05-04T12:48:31.932Z,98791.41
2023-05-04T12:51:00.510Z,98797.00
2023-05-04T12:53:30.004Z,98787.25
2023-05-04T12:55:58.123Z,98779.28
2023-05-04T12:58:25.946Z,98780.31
2023-05-04T13:00:56.045Z,98777.97
2023-05-04T13:03:23.950Z,98768.66
2023-05-04T13:05:51.987Z,98761.47
2023-05-04T13:08:19.975Z,98757.91
2023-05-04T13:10:48.108Z,98759.47
2023-05-04T13:13:18.062Z,98761.97
2023-05-04T13:15:46.290Z,98752.34
2023-05-04T13:18:15.365Z,98740.63
2023-05-04T13:20:45.135Z,98741.56
2023-05-04T13:23:13.942Z,98736.22
2023-05-04T13:25:42.182Z,98728.53
2023-05-04T13:28:09.957Z,98725.50
2023-05-04T13:30:37.800Z,98721.97
2023-05-04T13:33:16.699Z,98717.78
2023-05-04T13:35:50.741Z,98711.13
2023-05-04T13:38:18.931Z,98705.41
2023-05-04T13:40:46.949Z,98701.41
2023-05-04T13:43:19.968Z,98694.13
2023-05-04T13:45:49.328Z,98704.41
2023-05-04T13:48:19.287Z,98687.50
2023-05-04T13:50:47.134Z,98687.84
2023-05-04T13:53:16.502Z,98693.16
2023-05-04T13:55:45.268Z,98687.84
2023-05-04T13:58:13.135Z,98685.38
2023-05-04T14:00:41.043Z,98677.88
2023-05-04T14:03:09.004Z,98681.53
2023-05-04T14:05:36.915Z,98674.81
2023-05-04T14:08:05.147Z,98685.34
2023-05-04T14:10:36.654Z,98675.59
2023-05-04T14:13:05.618Z,98663.69
2023-05-04T14:15:36.540Z,98660.72
2023-05-04T14:18:04.561Z,98665.41
2023-05-04T14:20:32.983Z,98657.22
2023-05-04T14:23:00.906Z,98647.47
2023-05-04T14:25:28.734Z,98636.22
2023-05-04T14:27:57.953Z,98641.44
2023-05-04T14:30:26.580Z,98631.69
2023-05-04T14:32:56.131Z,98631.66
2023-05-04T14:35:24.090Z,98633.66
2023-05-04T14:37:51.931Z,98633.34
2023-05-04T14:40:19.822Z,98621.47
2023-05-04T14:42:47.871Z,98630.81
2023-05-04T14:45:17.328Z,98618.38
2023-05-04T14:47:45.502Z,98616.09
2023-05-04T14:50:13.741Z,98620.66
2023-05-04T14:52:41.618Z,98608.13
2023-05-04T14:55:10.343Z,98609.63
2023-05-04T14:57:38.143Z,98599.00
2023-05-04T15:00:08.880Z,98600.06
2023-05-04T15:02:39.373Z,98597.38
2023-05-04T15:05:09.814Z,98597.53
2023-05-04T15:07:37.627Z,98597.97
2023-05-04T15:10:07.524Z,98592.78
2023-05-04T15:12:36.114Z,98588.38
2023-05-04T15:15:04.772Z,98593.41
2023-05-04T15:17:35.207Z,98591.31
2023-05-04T15:20:08.310Z,98590.88
2023-05-04T15:22:36.601Z,98584.66
2023-05-04T15:25:04.617Z,98589.25
2023-05-04T15:27:32.549Z,98587.53
2023-05-04T15:30:00.468Z,98576.78
2023-05-04T15:32:28.483Z,98589.81
2023-05-04T15:35:04.662Z,98588.00
2023-05-04T15:37:35.580Z,98584.59
2023-05-04T15:40:04.724Z,98592.47
2023-05-04T15:42:32.927Z,98581.31
2023-05-04T15:45:00.726Z,98588.38
2023-05-04T15:47:28.591Z,98585.44
2023-05-04T15:49:56.410Z,98584.44
2023-05-04T15:52:24.786Z,98584.00
2023-05-04T15:54:53.897Z,98585.72
2023-05-04T15:57:21.662Z,98591.09
2023-05-04T15:59:49.950Z,98591.28
2023-05-04T16:02:17.754Z,98594.44
2023-05-04T16:04:45.617Z,98587.59
2023-05-04T16:07:13.578Z,98586.75
2023-05-04T16:09:41.351Z,98580.69
2023-05-04T16:12:10.811Z,98588.19
2023-05-04T16:14:38.623Z,98577.16
2023-05-04T16:17:07.447Z,98584.25
2023-05-04T16:19:35.421Z,98575.84
2023-05-04T16:22:03.370Z,98584.63
2023-05-04T16:24:31.426Z,98576.75
2023-05-04T16:27:00.175Z,98586.06
2023-05-04T16:29:29.291Z,98580.13
2023-05-04T16:31:57.080Z,98575.63
2023-05-04T16:34:24.794Z,98567.34
2023-05-04T16:36:54.568Z,98556.91
2023-05-04T16:39:22.351Z,98555.91
2023-05-04T16:41:52.506Z,98557.53
2023-05-04T16:44:20.443Z,98554.59
2023-05-04T16:46:51.113Z,98561.38
2023-05-04T16:49:19.008Z,98555.81
2023-05-04T16:51:46.873Z,98549.66
2023-05-04T16:54:15.189Z,98556.03
2023-05-04T16:56:43.102Z,98553.59
2023-05-04T16:59:11.391Z,98548.91
2023-05-04T17:01:39.374Z,98554.19
2023-05-04T17:04:09.178Z,98554.25
2023-05-04T17:06:37.181Z,98553.50
2023-05-04T17:09:05.320Z,98552.34
2023-05-04T17:11:33.408Z,98557.28
2023-05-04T17:14:01.441Z,98557.47
2023-05-04T17:16:29.267Z,98558.03
2023-05-04T17:18:57.204Z,98552.78
2023-05-04T17:21:26.448Z,98555.03
2023-05-04T17:23:54.201Z,98548.66
2023-05-04T17:26:21.928Z,98547.34
2023-05-04T17:28:49.813Z,98549.88
2023-05-04T17:31:17.653Z,98541.56
2023-05-04T17:33:46.261Z,98542.16
2023-05-04T17:36:14.088Z,98542.75
2023-05-04T17:38:43.219Z,98548.13
2023-05-04T17:41:11.115Z,98542.50
2023-05-04T17:43:39.173Z,98543.75
2023-05-04T17:46:07.049Z,98549.50
2023-05-04T17:48:36.342Z,98551.97
2023-05-04T17:51:08.341Z,98549.34
2023-05-04T17:53:36.673Z,98550.19
2023-05-04T17:56:06.136Z,98550.91
2023-05-04T17:58:34.117Z,98554.03
2023-05-04T18:01:04.342Z,98550.72
2023-05-04T18:03:32.561Z,98560.19
2023-05-04T18:06:00.661Z,98560.41
2023-05-04T18:08:28.434Z,98567.47
2023-05-04T18:10:56.335Z,98572.09
2023-05-04T18:13:25.683Z,98566.06
2023-05-04T18:15:54.481Z,98572.63
2023-05-04T18:18:22.322Z,98576.16
2023-05-04T18:20:50.170Z,98568.25
2023-05-04T18:23:17.919Z,98576.63
2023-05-04T18:25:45.765Z,98582.19
2023-05-04T18:28:13.720Z,98581.06
2023-05-04T18:30:42.915Z,98584.06
2023-05-04T18:33:10.706Z,98578.56
2023-05-04T18:35:38.620Z,98579.47
2023-05-04T18:38:06.429Z,98587.75
2023-05-04T18:40:34.294Z,98596.97
2023-05-04T18:43:02.192Z,98594.94
2023-05-04T18:45:30.017Z,98608.63
2023-05-04T18:48:01.425Z,98605.13
2023-05-04T18:50:32.420Z,98604.75
2023-05-04T18:53:00.319Z,98614.09
2023-05-04T18:55:28.087Z,98617.84
2023-05-04T18:57:55.907Z,98610.41
2023-05-04T19:00:23.899Z,98620.03
2023-05-04T19:02:51.813Z,98625.75
2023-05-04T19:05:23.258Z,98618.84
2023-05-04T19:07:51.111Z,98623.16
2023-05-04T19:10:19.118Z,98631.34
2023-05-04T19:12:47.314Z,98632.47
2023-05-04T19:15:15.229Z,98629.97
2023-05-04T19:17:43.017Z,98640.31
2023-05-04T19:20:11.360Z,98644.44
2023-05-04T19:22:40.483Z,98642.91
2023-05-04T19:25:09.549Z,98640.72
2023-05-04T19:27:37.980Z,98648.25
2023-05-04T19:30:07.238Z,98649.78
2023-05-04T19:32:35.286Z,98659.16
2023-05-04T19:35:03.288Z,98652.38
2023-05-04T19:37:31.113Z,98657.28
2023-05-04T19:40:00.370Z,98659.72
2023-05-04T19:42:28.415Z,98656.84
2023-05-04T19:44:56.300Z,98661.09
2023-05-04T19:47:24.335Z,98660.75
2023-05-04T19:49:52.362Z,98656.25
2023-05-04T19:52:20.218Z,98661.56
2023-05-04T19:54:53.674Z,98659.38
2023-05-04T19:57:23.240Z,98669.16
2023-05-04T19:59:51.101Z,98665.09
2023-05-04T20:02:18.942Z,98670.50
2023-05-04T20:04:46.722Z,98671.88
2023-05-04T20:07:14.609Z,98670.94
2023-05-04T20:09:42.399Z,98674.13
2023-05-04T20:12:10.812Z,98672.47
2023-05-04T20:14:41.159Z,98678.53
2023-05-04T20:17:09.140Z,98676.19
2023-05-04T20:19:37.590Z,98674.19
2023-05-04T20:22:05.568Z,98667.88
2023-05-04T20:24:33.419Z,98674.88
2023-05-04T20:27:01.286Z,98670.97
2023-05-04T20:29:29.202Z,98668.13
2023-05-04T20:31:58.596Z,98677.47
2023-05-04T20:34:28.986Z,98673.88
2023-05-04T20:36:56.835Z,98681.94
2023-05-04T20:39:24.704Z,98675.09
2023-05-04T20:41:52.970Z,98680.00
2023-05-04T20:44:20.772Z,98684.19
2023-05-04T20:46:48.660Z,98674.97
2023-05-04T20:49:20.965Z,98685.16
2023-05-04T20:51:51.076Z,98679.13
2023-05-04T20:54:18.891Z,98678.06
2023-05-04T20:56:46.712Z,98684.28
2023-05-04T20:59:14.454Z,98682.28
2023-05-04T21:01:42.354Z,98680.84
2023-05-04T21:04:10.531Z,98672.53
2023-05-04T21:06:39.711Z,98672.00
2023-05-04T21:09:07.854Z,98668.47
2023-05-04T21:11:35.716Z,98664.72
2023-05-04T21:14:03.520Z,98667.00
2023-05-04T21:16:31.722Z,98661.03
2023-05-04T21:18:59.614Z,98663.50
2023-05-04T21:21:27.431Z,98676.09
2023-05-04T21:23:56.731Z,98667.34
2023-05-04T21:26:26.794Z,98663.75
2023-05-04T21:28:54.625Z,98676.47
2023-05-04T21:31:22.331Z,98667.66
2023-05-04T21:33:52.241Z,98669.00
2023-05-04T21:36:20.194Z,98666.16
2023-05-04T21:38:47.958Z,98660.50
2023-05-04T21:41:18.054Z,98667.13
2023-05-04T21:43:45.874Z,98653.25
2023-05-04T21:46:14.462Z,98658.09
2023-05-04T21:48:42.489Z,98663.44
2023-05-04T21:51:10.393Z,98669.72
2023-05-04T21:53:40.340Z,98664.13
2023-05-04T21:56:09.966Z,98651.75
2023-05-04T21:58:40.326Z,98658.91
2023-05-04T22:01:08.692Z,98656.97
2023-05-04T22:03:36.964Z,98667.28
2023-05-04T22:06:05.449Z,98665.81
2023-05-04T22:08:33.226Z,98664.38
2023-05-04T22:11:01.110Z,98671.28
2023-05-04T22:13:29.074Z,98664.44
2023-05-04T22:15:58.288Z,98667.50
2023-05-04T22:18:26.149Z,98674.53
2023-05-04T22:20:54.073Z,98667.19
2023-05-04T22:23:21.852Z,98671.84
2023-05-04T22:25:49.744Z,98668.88
2023-05-04T22:28:18.003Z,98664.59
2023-05-04T22:30:45.941Z,98661.41
2023-05-04T22:33:15.533Z,98664.00
2023-05-04T22:35:43.842Z,98668.88
2023-05-04T22:38:11.944Z,98667.19
2023-05-04T22:40:40.554Z,98679.09
2023-05-04T22:43:08.584Z,98667.44
2023-05-04T22:45:36.731Z,98662.91
2023-05-04T22:48:04.834Z,98666.44
2023-05-04T22:50:34.302Z,98670.63
2023-05-04T22:53:02.227Z,98669.78
2023-05-04T22:55:30.296Z,98671.66
2023-05-04T22:57:58.113Z,98669.97
2023-05-04T23:00:26.078Z,98675.31
2023-05-04T23:02:54.054Z,98679.50
2023-05-04T23:05:24.116Z,98678.44
2023-05-04T23:07:53.384Z,98678.31
2023-05-04T23:10:21.672Z,98685.03
2023-05-04T23:12:51.550Z,98680.41
2023-05-04T23:15:19.342Z,98681.66
2023-05-04T23:17:47.435Z,98683.75
2023-05-04T23:20:16.704Z,98679.97
2023-05-04T23:22:44.499Z,98686.13
2023-05-04T23:25:13.618Z,98685.94
2023-05-04T23:27:41.730Z,98684.91
2023-05-04T23:30:10.551Z,98685.00
2023-05-04T23:32:38.382Z,98690.72
2023-05-04T23:35:07.700Z,98691.75
2023-05-04T23:37:35.471Z,98687.84
2023-05-04T23:40:03.471Z,98684.19
2023-05-04T23:42:32.609Z,98693.97
2023-05-04T23:45:00.365Z,98692.75
2023-05-04T23:47:28.209Z,98691.94
2023-05-04T23:49:58.544Z,98702.44
2023-05-04T23:52:26.457Z,98696.69
2023-05-04T23:54:54.783Z,98695.28
2023-05-04T23:57:22.640Z,98693.44
2023-05-04T23:59:53.363Z,98703.06
